createdAt,value
2023-10-26T00:02:18.768Z,100.00
2023-10-26T00:04:45.940Z,100.00
2023-10-26T00:07:13.287Z,100.00
2023-10-26T00:09:40.307Z,100.00
2023-10-26T00:12:07.944Z,100.00
2023-10-26T00:14:35.099Z,100.00
2023-10-26T00:17:02.120Z,100.00
2023-10-26T00:19:29.147Z,100.00
2023-10-26T00:21:56.185Z,100.00
2023-10-26T00:24:23.184Z,100.00
2023-10-26T00:26:50.675Z,100.00
2023-10-26T00:29:17.982Z,100.00
2023-10-26T00:31:45.869Z,100.00
2023-10-26T00:34:12.867Z,100.00
2023-10-26T00:36:39.856Z,100.00
2023-10-26T00:39:06.933Z,100.00
2023-10-26T00:41:34.005Z,100.00
2023-10-26T00:44:01.388Z,100.00
2023-10-26T00:46:28.392Z,100.00
2023-10-26T00:48:55.531Z,100.00
2023-10-26T00:51:23.704Z,100.00
2023-10-26T00:53:51.182Z,100.00
2023-10-26T00:56:20.883Z,100.00
2023-10-26T00:58:49.298Z,100.00
2023-10-26T01:01:16.891Z,100.00
2023-10-26T01:03:47.617Z,100.00
2023-10-26T01:06:14.593Z,100.00
2023-10-26T01:08:41.821Z,100.00
2023-10-26T01:11:09.094Z,100.00
2023-10-26T01:13:36.985Z,100.00
2023-10-26T01:16:05.947Z,100.00
2023-10-26T01:18:33.241Z,100.00
2023-10-26T01:21:00.464Z,100.00
2023-10-26T01:23:27.846Z,100.00
2023-10-26T01:25:57.230Z,100.00
2023-10-26T01:28:24.935Z,100.00
2023-10-26T01:30:52.869Z,100.00
2023-10-26T01:33:21.314Z,100.00
2023-10-26T01:35:48.660Z,100.00
2023-10-26T01:38:16.420Z,100.00
2023-10-26T01:40:43.814Z,100.00
2023-10-26T01:43:10.864Z,100.00
2023-10-26T01:45:37.864Z,100.00
2023-10-26T01:48:05.816Z,100.00
2023-10-26T01:50:33.535Z,100.00
2023-10-26T01:53:00.558Z,100.00
2023-10-26T01:55:27.572Z,100.00
2023-10-26T01:57:54.713Z,100.00
2023-10-26T02:00:22.419Z,100.00
2023-10-26T02:02:51.184Z,100.00
2023-10-26T02:05:18.348Z,100.00
2023-10-26T02:07:45.456Z,100.00
2023-10-26T02:10:15.968Z,100.00
2023-10-26T02:12:43.025Z,100.00
2023-10-26T02:15:11.179Z,100.00
2023-10-26T02:17:38.660Z,100.00
2023-10-26T02:20:06.549Z,100.00
2023-10-26T02:22:33.544Z,100.00
2023-10-26T02:25:00.595Z,100.00
2023-10-26T02:27:27.634Z,100.00
2023-10-26T02:29:54.661Z,100.00
2023-10-26T02:32:21.663Z,100.00
2023-10-26T02:34:48.712Z,100.00
2023-10-26T02:37:16.730Z,100.00
2023-10-26T02:39:43.704Z,100.00
2023-10-26T02:42:10.734Z,100.00
2023-10-26T02:44:38.102Z,100.00
2023-10-26T02:47:05.339Z,100.00
2023-10-26T02:49:32.505Z,100.00
2023-10-26T02:51:59.483Z,100.00
2023-10-26T02:54:29.589Z,100.00
2023-10-26T02:56:56.717Z,100.00
2023-10-26T02:59:23.867Z,100.00
2023-10-26T03:01:51.041Z,100.00
2023-10-26T03:04:18.102Z,100.00
2023-10-26T03:06:45.192Z,100.00
2023-10-26T03:09:14.884Z,100.00
2023-10-26T03:11:42.797Z,100.00
2023-10-26T03:14:09.812Z,100.00
2023-10-26T03:16:39.087Z,100.00
2023-10-26T03:19:06.411Z,100.00
2023-10-26T03:21:35.017Z,100.00
2023-10-26T03:24:02.390Z,100.00
2023-10-26T03:26:29.522Z,100.00
2023-10-26T03:28:56.570Z,100.00
2023-10-26T03:31:23.561Z,100.00
2023-10-26T03:33:50.815Z,100.00
2023-10-26T03:36:20.487Z,100.00
2023-10-26T03:38:48.479Z,100.00
2023-10-26T03:41:15.568Z,100.00
2023-10-26T03:43:42.541Z,100.00
2023-10-26T03:46:11.962Z,100.00
2023-10-26T03:48:39.101Z,100.00
2023-10-26T03:51:06.252Z,100.00
2023-10-26T03:53:34.322Z,100.00
2023-10-26T03:56:03.286Z,100.00
2023-10-26T03:58:30.310Z,100.00
2023-10-26T04:00:59.389Z,100.00
2023-10-26T04:03:26.647Z,100.00
2023-10-26T04:05:54.587Z,100.00
2023-10-26T04:08:21.606Z,100.00
2023-10-26T04:10:49.452Z,100.00
2023-10-26T04:13:16.408Z,100.00
2023-10-26T04:15:43.504Z,100.00
2023-10-26T04:18:10.607Z,100.00
2023-10-26T04:20:37.676Z,100.00
2023-10-26T04:23:05.249Z,100.00
2023-10-26T04:25:50.552Z,100.00
2023-10-26T04:28:19.664Z,100.00
2023-10-26T04:30:50.777Z,100.00
2023-10-26T04:33:19.301Z,100.00
2023-10-26T04:35:48.179Z,100.00
2023-10-26T04:38:15.150Z,100.00
2023-10-26T04:40:44.403Z,100.00
2023-10-26T04:43:11.465Z,100.00
2023-10-26T04:45:38.709Z,100.00
2023-10-26T04:48:05.920Z,100.00
2023-10-26T04:50:33.543Z,100.00
2023-10-26T04:53:03.642Z,100.00
2023-10-26T04:55:35.405Z,100.00
2023-10-26T04:58:03.368Z,100.00
2023-10-26T05:00:31.364Z,100.00
2023-10-26T05:02:58.704Z,100.00
2023-10-26T05:05:26.561Z,100.00
2023-10-26T05:07:54.138Z,100.00
2023-10-26T05:10:21.848Z,100.00
2023-10-26T05:12:48.975Z,100.00
2023-10-26T05:15:16.082Z,100.00
2023-10-26T05:17:43.228Z,100.00
2023-10-26T05:20:11.062Z,100.00
2023-10-26T05:22:38.631Z,100.00
2023-10-26T05:25:06.369Z,100.00
2023-10-26T05:27:37.119Z,100.00
2023-10-26T05:30:06.737Z,100.00
2023-10-26T05:32:34.124Z,100.00
2023-10-26T05:35:01.234Z,100.00
2023-10-26T05:37:28.309Z,100.00
2023-10-26T05:39:55.350Z,100.00
2023-10-26T05:42:22.426Z,100.00
2023-10-26T05:44:49.512Z,100.00
2023-10-26T05:47:21.786Z,100.00
2023-10-26T05:49:49.441Z,100.00
2023-10-26T05:52:16.985Z,100.00
2023-10-26T05:54:44.159Z,100.00
2023-10-26T05:57:11.335Z,100.00
2023-10-26T05:59:38.341Z,100.00
2023-10-26T06:02:05.843Z,100.00
2023-10-26T06:04:33.268Z,100.00
2023-10-26T06:07:01.308Z,100.00
2023-10-26T06:09:28.563Z,100.00
2023-10-26T06:11:55.565Z,100.00
2023-10-26T06:14:22.556Z,100.00
2023-10-26T06:16:49.585Z,100.00
2023-10-26T06:19:16.680Z,100.00
2023-10-26T06:21:43.661Z,100.00
2023-10-26T06:24:10.894Z,100.00
2023-10-26T06:26:38.104Z,100.00
2023-10-26T06:29:05.320Z,100.00
2023-10-26T06:31:32.315Z,100.00
2023-10-26T06:33:59.343Z,100.00
2023-10-26T06:36:26.344Z,100.00
2023-10-26T06:38:55.619Z,100.00
2023-10-26T06:41:23.034Z,100.00
2023-10-26T06:43:49.997Z,100.00
2023-10-26T06:46:17.277Z,100.00
2023-10-26T06:48:44.363Z,100.00
2023-10-26T06:51:11.383Z,100.00
2023-10-26T06:53:38.364Z,100.00
2023-10-26T06:56:14.652Z,100.00
2023-10-26T06:58:43.798Z,100.00
2023-10-26T07:01:24.437Z,100.00
2023-10-26T07:03:52.606Z,100.00
2023-10-26T07:06:20.645Z,100.00
2023-10-26T07:08:50.305Z,100.00
2023-10-26T07:11:21.023Z,100.00
2023-10-26T07:13:48.276Z,100.00
2023-10-26T07:16:15.261Z,100.00
2023-10-26T07:18:42.413Z,100.00
2023-10-26T07:21:09.563Z,100.00
2023-10-26T07:23:37.096Z,100.00
2023-10-26T07:26:04.736Z,100.00
2023-10-26T07:28:31.761Z,100.00
2023-10-26T07:30:58.719Z,100.00
2023-10-26T07:33:26.335Z,100.00
2023-10-26T07:35:57.572Z,100.00
2023-10-26T07:38:36.777Z,100.00
2023-10-26T07:41:06.923Z,100.00
2023-10-26T07:43:35.438Z,100.00
2023-10-26T07:46:03.165Z,100.00
2023-10-26T07:48:32.366Z,100.00
2023-10-26T07:50:59.552Z,100.00
2023-10-26T07:53:29.605Z,100.00
2023-10-26T07:55:59.213Z,100.00
2023-10-26T07:58:31.604Z,100.00
2023-10-26T08:00:58.635Z,100.00
2023-10-26T08:03:25.859Z,100.00
2023-10-26T08:06:02.110Z,100.00
2023-10-26T08:08:29.260Z,100.00
2023-10-26T08:10:57.777Z,100.00
2023-10-26T08:13:24.807Z,100.00
2023-10-26T08:16:08.690Z,100.00
2023-10-26T08:18:39.558Z,100.00
2023-10-26T08:21:06.888Z,100.00
2023-10-26T08:23:34.459Z,100.00
2023-10-26T08:26:11.442Z,100.00
2023-10-26T08:28:38.634Z,100.00
2023-10-26T08:31:08.040Z,100.00
2023-10-26T08:33:35.671Z,100.00
2023-10-26T08:36:05.467Z,100.00
2023-10-26T08:38:34.228Z,100.00
2023-10-26T08:41:01.612Z,100.00
2023-10-26T08:43:30.154Z,100.00
2023-10-26T08:46:01.586Z,100.00
2023-10-26T08:48:31.695Z,100.00
2023-10-26T08:50:58.940Z,100.00
2023-10-26T08:53:26.060Z,100.00
2023-10-26T08:55:57.567Z,100.00
2023-10-26T08:58:24.782Z,100.00
2023-10-26T09:00:53.528Z,100.00
2023-10-26T09:03:23.193Z,100.00
2023-10-26T09:05:57.656Z,100.00
2023-10-26T09:08:27.892Z,100.00
2023-10-26T09:10:55.058Z,100.00
2023-10-26T09:13:29.356Z,100.00
2023-10-26T09:15:59.383Z,100.00
2023-10-26T09:18:29.578Z,100.00
2023-10-26T09:21:08.497Z,100.00
2023-10-26T09:23:38.716Z,100.00
2023-10-26T09:26:11.608Z,100.00
2023-10-26T09:28:55.446Z,100.00
2023-10-26T09:31:26.500Z,100.00
2023-10-26T09:33:53.613Z,100.00
2023-10-26T09:36:21.990Z,100.00
2023-10-26T09:38:49.315Z,100.00
2023-10-26T09:41:18.316Z,100.00
2023-10-26T09:43:45.455Z,100.00
2023-10-26T09:46:15.580Z,100.00
2023-10-26T09:48:42.795Z,100.00
2023-10-26T09:51:12.183Z,100.00
2023-10-26T09:53:43.561Z,100.00
2023-10-26T09:56:21.682Z,100.00
2023-10-26T09:58:49.574Z,100.00
2023-10-26T10:01:41.238Z,100.00
2023-10-26T10:04:11.939Z,100.00
2023-10-26T10:06:55.905Z,100.00
2023-10-26T10:09:25.227Z,100.00
2023-10-26T10:12:07.308Z,100.00
2023-10-26T10:15:22.593Z,100.00
2023-10-26T10:17:50.389Z,100.00
2023-10-26T10:20:20.161Z,100.00
2023-10-26T10:22:49.084Z,100.00
2023-10-26T10:25:19.707Z,100.00
2023-10-26T10:27:49.781Z,100.00
2023-10-26T10:30:22.837Z,100.00
2023-10-26T10:32:51.941Z,100.00
2023-10-26T10:35:22.182Z,100.00
2023-10-26T10:38:20.394Z,100.00
2023-10-26T10:40:56.461Z,100.00
2023-10-26T10:43:42.050Z,100.00
2023-10-26T10:46:14.870Z,100.00
2023-10-26T10:49:01.035Z,100.00
2023-10-26T10:51:39.787Z,100.00
2023-10-26T10:56:50.693Z,100.00
2023-10-26T10:59:27.825Z,100.00
2023-10-26T11:02:14.978Z,100.00
2023-10-26T11:05:02.304Z,100.00
2023-10-26T11:07:36.673Z,100.00
2023-10-26T11:10:04.783Z,100.00
2023-10-26T11:12:32.091Z,100.00
2023-10-26T11:14:59.880Z,100.00
2023-10-26T11:17:29.180Z,100.00
2023-10-26T11:19:57.148Z,100.00
2023-10-26T11:22:24.575Z,100.00
2023-10-26T11:24:51.867Z,100.00
2023-10-26T11:27:23.477Z,100.00
2023-10-26T11:30:06.720Z,96.91
2023-10-26T11:32:34.265Z,100.00
2023-10-26T11:35:17.582Z,96.69
2023-10-26T11:37:49.895Z,94.73
2023-10-26T11:40:18.056Z,99.21
2023-10-26T11:42:58.091Z,93.96
2023-10-26T11:45:27.350Z,97.80
2023-10-26T11:47:59.575Z,95.82
2023-10-26T11:50:33.521Z,92.62
2023-10-26T11:53:02.812Z,89.18
2023-10-26T11:55:35.707Z,86.48
2023-10-26T11:58:04.334Z,85.90
2023-10-26T12:00:32.307Z,85.67
2023-10-26T12:03:00.387Z,83.13
2023-10-26T12:05:28.812Z,85.07
2023-10-26T12:07:56.461Z,83.67
2023-10-26T12:10:25.138Z,84.59
2023-10-26T12:12:53.106Z,83.33
2023-10-26T12:15:24.080Z,82.06
2023-10-26T12:17:51.906Z,82.49
2023-10-26T12:20:19.748Z,76.54
2023-10-26T12:22:48.805Z,77.42
2023-10-26T12:25:15.960Z,76.27
2023-10-26T12:28:21.296Z,76.12
2023-10-26T12:30:30.134Z,74.90
2023-10-26T12:32:57.195Z,75.24
2023-10-26T12:35:24.815Z,73.13
2023-10-26T12:37:52.651Z,71.86
2023-10-26T12:40:21.765Z,71.32
2023-10-26T12:42:49.134Z,71.24
2023-10-26T12:45:18.935Z,69.23
2023-10-26T12:47:46.385Z,70.93
2023-10-26T12:50:13.705Z,70.50
2023-10-26T12:52:40.902Z,72.51
2023-10-26T12:55:08.368Z,71.51
2023-10-26T12:57:35.361Z,71.87
2023-10-26T13:00:02.528Z,73.90
2023-10-26T13:02:29.834Z,74.28
2023-10-26T13:04:56.964Z,73.76
2023-10-26T13:07:24.100Z,73.84
2023-10-26T13:09:51.167Z,73.49
2023-10-26T13:12:18.167Z,72.61
2023-10-26T13:14:45.291Z,74.83
2023-10-26T13:17:15.064Z,74.17
2023-10-26T13:19:42.095Z,75.14
2023-10-26T13:22:09.690Z,75.99
2023-10-26T13:24:36.674Z,76.85
2023-10-26T13:27:03.986Z,76.23
2023-10-26T13:29:30.969Z,76.25
2023-10-26T13:31:59.094Z,74.47
2023-10-26T13:34:26.061Z,75.60
2023-10-26T13:36:53.208Z,77.84
2023-10-26T13:39:22.593Z,77.90
2023-10-26T13:41:49.651Z,78.73
2023-10-26T13:44:16.656Z,81.46
2023-10-26T13:46:43.885Z,82.31
2023-10-26T13:49:12.881Z,81.01
2023-10-26T13:51:39.998Z,81.48
2023-10-26T13:54:07.457Z,81.63
2023-10-26T13:56:35.134Z,84.75
2023-10-26T13:59:02.551Z,84.51
2023-10-26T14:01:29.763Z,83.77
2023-10-26T14:03:56.772Z,85.13
2023-10-26T14:06:27.233Z,86.32
2023-10-26T14:08:59.478Z,85.75
2023-10-26T14:11:28.117Z,85.83
2023-10-26T14:13:55.268Z,87.17
2023-10-26T14:16:22.401Z,88.29
2023-10-26T14:18:49.937Z,89.03
2023-10-26T14:21:18.094Z,90.83
2023-10-26T14:23:45.413Z,91.58
2023-10-26T14:26:12.502Z,94.72
2023-10-26T14:28:39.536Z,96.46
2023-10-26T14:31:06.596Z,96.99
2023-10-26T14:33:33.642Z,97.07
2023-10-26T14:36:00.656Z,97.94
2023-10-26T14:38:27.632Z,98.85
2023-10-26T14:40:59.369Z,99.88
2023-10-26T14:43:28.456Z,100.00
2023-10-26T14:45:55.627Z,100.00
2023-10-26T14:48:22.669Z,100.00
2023-10-26T14:50:49.925Z,100.00
2023-10-26T14:53:16.911Z,100.00
2023-10-26T14:55:43.961Z,100.00
2023-10-26T14:58:11.104Z,100.00
2023-10-26T15:00:39.758Z,100.00
2023-10-26T15:03:07.612Z,100.00
2023-10-26T15:05:35.913Z,100.00
2023-10-26T15:08:04.167Z,100.00
2023-10-26T15:10:35.866Z,100.00
2023-10-26T15:13:06.143Z,100.00
2023-10-26T15:15:33.296Z,100.00
2023-10-26T15:18:00.445Z,100.00
2023-10-26T15:20:27.418Z,100.00
2023-10-26T15:22:54.396Z,100.00
2023-10-26T15:25:21.556Z,100.00
2023-10-26T15:27:48.601Z,100.00
2023-10-26T15:30:15.716Z,100.00
2023-10-26T15:32:42.753Z,100.00
2023-10-26T15:35:09.721Z,100.00
2023-10-26T15:37:38.087Z,100.00
2023-10-26T15:40:06.490Z,100.00
2023-10-26T15:42:33.668Z,100.00
2023-10-26T15:45:00.810Z,100.00
2023-10-26T15:47:27.861Z,100.00
2023-10-26T15:49:59.347Z,100.00
2023-10-26T15:52:26.653Z,100.00
2023-10-26T15:54:53.634Z,100.00
2023-10-26T15:57:20.673Z,100.00
2023-10-26T15:59:47.734Z,100.00
2023-10-26T16:02:14.795Z,100.00
2023-10-26T16:04:41.881Z,100.00
2023-10-26T16:07:08.951Z,100.00
2023-10-26T16:09:37.553Z,100.00
2023-10-26T16:12:05.518Z,100.00
2023-10-26T16:14:32.478Z,100.00
2023-10-26T16:16:59.478Z,100.00
2023-10-26T16:19:28.471Z,100.00
2023-10-26T16:21:55.761Z,100.00
2023-10-26T16:24:22.814Z,100.00
2023-10-26T16:26:49.792Z,100.00
2023-10-26T16:29:16.904Z,100.00
2023-10-26T16:31:43.901Z,100.00
2023-10-26T16:34:10.915Z,100.00
2023-10-26T16:36:37.968Z,100.00
2023-10-26T16:39:05.677Z,100.00
2023-10-26T16:41:32.673Z,100.00
2023-10-26T16:43:59.636Z,100.00
2023-10-26T16:46:26.744Z,100.00
2023-10-26T16:48:53.800Z,100.00
2023-10-26T16:51:21.011Z,100.00
2023-10-26T16:53:48.050Z,100.00
2023-10-26T16:56:14.996Z,100.00
2023-10-26T16:58:41.972Z,100.00
2023-10-26T17:01:13.674Z,100.00
2023-10-26T17:03:40.799Z,100.00
2023-10-26T17:06:10.279Z,100.00
2023-10-26T17:08:37.508Z,100.00
2023-10-26T17:11:04.722Z,100.00
2023-10-26T17:13:31.820Z,100.00
2023-10-26T17:15:58.890Z,100.00
2023-10-26T17:18:26.037Z,100.00
2023-10-26T17:20:58.058Z,100.00
2023-10-26T17:23:28.732Z,100.00
2023-10-26T17:25:55.675Z,100.00
2023-10-26T17:28:22.670Z,100.00
2023-10-26T17:30:49.903Z,100.00
2023-10-26T17:33:17.002Z,100.00
2023-10-26T17:35:49.217Z,100.00
2023-10-26T17:38:16.475Z,100.00
2023-10-26T17:40:46.118Z,100.00
2023-10-26T17:43:14.478Z,100.00
2023-10-26T17:45:41.651Z,100.00
2023-10-26T17:48:10.998Z,100.00
2023-10-26T17:50:41.867Z,100.00
2023-10-26T17:53:09.337Z,100.00
2023-10-26T17:55:36.371Z,100.00
2023-10-26T17:58:03.524Z,100.00
2023-10-26T18:00:30.655Z,100.00
2023-10-26T18:02:57.675Z,100.00
2023-10-26T18:05:24.800Z,100.00
2023-10-26T18:07:51.760Z,100.00
2023-10-26T18:10:21.117Z,100.00
2023-10-26T18:12:48.813Z,100.00
2023-10-26T18:15:15.936Z,100.00
2023-10-26T18:17:43.022Z,100.00
2023-10-26T18:20:10.657Z,100.00
2023-10-26T18:22:37.655Z,100.00
2023-10-26T18:25:05.221Z,100.00
2023-10-26T18:27:32.720Z,100.00
2023-10-26T18:29:59.741Z,100.00
2023-10-26T18:32:26.855Z,100.00
2023-10-26T18:34:53.854Z,100.00
2023-10-26T18:37:22.310Z,100.00
2023-10-26T18:39:49.959Z,100.00
2023-10-26T18:42:17.068Z,100.00
2023-10-26T18:44:44.031Z,100.00
2023-10-26T18:47:11.810Z,100.00
2023-10-26T18:49:39.852Z,100.00
2023-10-26T18:52:07.186Z,100.00
2023-10-26T18:54:35.247Z,100.00
2023-10-26T18:57:04.698Z,100.00
2023-10-26T18:59:31.894Z,100.00
2023-10-26T19:02:00.144Z,100.00
2023-10-26T19:04:27.304Z,100.00
2023-10-26T19:06:55.139Z,100.00
2023-10-26T19:09:22.140Z,100.00
2023-10-26T19:11:49.110Z,100.00
2023-10-26T19:14:16.072Z,100.00
2023-10-26T19:16:43.390Z,100.00
2023-10-26T19:19:10.581Z,100.00
2023-10-26T19:21:37.733Z,100.00
2023-10-26T19:24:05.220Z,100.00
2023-10-26T19:26:32.202Z,100.00
2023-10-26T19:28:59.220Z,100.00
2023-10-26T19:31:27.472Z,100.00
2023-10-26T19:33:54.618Z,100.00
2023-10-26T19:36:21.613Z,100.00
2023-10-26T19:38:49.781Z,100.00
2023-10-26T19:41:22.378Z,100.00
2023-10-26T19:43:54.350Z,100.00
2023-10-26T19:46:25.925Z,100.00
2023-10-26T19:48:53.013Z,100.00
2023-10-26T19:51:21.284Z,100.00
2023-10-26T19:53:51.713Z,100.00
2023-10-26T19:56:19.809Z,100.00
2023-10-26T19:58:47.495Z,100.00
2023-10-26T20:01:14.716Z,100.00
2023-10-26T20:03:42.273Z,100.00
2023-10-26T20:06:09.400Z,100.00
2023-10-26T20:08:37.226Z,100.00
2023-10-26T20:11:05.848Z,100.00
2023-10-26T20:13:32.943Z,100.00
2023-10-26T20:15:59.955Z,100.00
2023-10-26T20:18:28.557Z,100.00
2023-10-26T20:20:55.558Z,100.00
2023-10-26T20:23:22.578Z,100.00
2023-10-26T20:25:50.495Z,100.00
2023-10-26T20:28:17.519Z,100.00
2023-10-26T20:30:44.637Z,100.00
2023-10-26T20:33:11.650Z,100.00
2023-10-26T20:35:38.667Z,100.00
2023-10-26T20:38:05.705Z,100.00
2023-10-26T20:40:33.075Z,100.00
2023-10-26T20:43:02.390Z,100.00
2023-10-26T20:45:29.410Z,100.00
2023-10-26T20:47:56.400Z,100.00
2023-10-26T20:50:23.605Z,100.00
2023-10-26T20:52:53.591Z,100.00
2023-10-26T20:55:20.713Z,100.00
2023-10-26T20:57:47.798Z,100.00
2023-10-26T21:00:15.572Z,100.00
2023-10-26T21:02:43.461Z,100.00
2023-10-26T21:05:10.539Z,100.00
2023-10-26T21:07:38.620Z,100.00
2023-10-26T21:10:06.556Z,100.00
2023-10-26T21:12:33.798Z,100.00
2023-10-26T21:15:00.799Z,100.00
2023-10-26T21:17:30.205Z,100.00
2023-10-26T21:19:57.321Z,100.00
2023-10-26T21:22:24.524Z,100.00
2023-10-26T21:24:51.577Z,100.00
2023-10-26T21:27:19.240Z,100.00
2023-10-26T21:29:46.233Z,100.00
2023-10-26T21:32:13.267Z,100.00
2023-10-26T21:34:40.321Z,100.00
2023-10-26T21:37:08.367Z,100.00
2023-10-26T21:39:35.362Z,100.00
2023-10-26T21:42:04.316Z,100.00
2023-10-26T21:44:31.312Z,100.00
2023-10-26T21:46:58.378Z,100.00
2023-10-26T21:49:25.419Z,100.00
2023-10-26T21:51:52.390Z,100.00
2023-10-26T21:54:19.392Z,100.00
2023-10-26T21:56:46.437Z,100.00
2023-10-26T21:59:13.450Z,100.00
2023-10-26T22:01:40.537Z,100.00
2023-10-26T22:04:21.521Z,100.00
2023-10-26T22:06:49.268Z,100.00
2023-10-26T22:09:18.314Z,100.00
2023-10-26T22:11:45.534Z,100.00
2023-10-26T22:14:12.512Z,100.00
2023-10-26T22:16:41.213Z,100.00
2023-10-26T22:19:08.364Z,100.00
2023-10-26T22:21:35.421Z,100.00
2023-10-26T22:24:02.989Z,100.00
2023-10-26T22:26:30.131Z,100.00
2023-10-26T22:28:57.096Z,100.00
2023-10-26T22:31:24.107Z,100.00
2023-10-26T22:33:51.158Z,100.00
2023-10-26T22:36:18.234Z,100.00
2023-10-26T22:38:46.047Z,100.00
2023-10-26T22:41:13.292Z,100.00
2023-10-26T22:43:40.329Z,100.00
2023-10-26T22:46:07.885Z,100.00
2023-10-26T22:48:34.960Z,100.00
2023-10-26T22:51:02.127Z,100.00
2023-10-26T22:53:29.143Z,100.00
2023-10-26T22:55:56.095Z,100.00
2023-10-26T22:58:23.216Z,100.00
2023-10-26T23:00:50.248Z,100.00
2023-10-26T23:03:17.346Z,100.00
2023-10-26T23:05:44.519Z,100.00
2023-10-26T23:08:12.542Z,100.00
2023-10-26T23:10:39.503Z,100.00
2023-10-26T23:13:06.511Z,100.00
2023-10-26T23:15:33.511Z,100.00
2023-10-26T23:18:00.511Z,100.00
2023-10-26T23:20:27.717Z,100.00
2023-10-26T23:22:54.674Z,100.00
2023-10-26T23:25:21.894Z,100.00
2023-10-26T23:27:50.579Z,100.00
2023-10-26T23:30:17.635Z,100.00
2023-10-26T23:32:44.656Z,100.00
2023-10-26T23:35:11.670Z,100.00
2023-10-26T23:37:38.674Z,100.00
2023-10-26T23:40:07.469Z,100.00
2023-10-26T23:42:34.937Z,100.00
2023-10-26T23:45:01.909Z,100.00
2023-10-26T23:47:29.369Z,100.00
2023-10-26T23:49:57.044Z,100.00
2023-10-26T23:52:24.047Z,100.00
2023-10-26T23:54:51.611Z,100.00
2023-10-26T23:57:19.758Z,100.00
2023-10-26T23:59:46.767Z,100.00
